Aérodrome :
LOGIN :

S'inscrire | Disclaimer

   EN    FR    IT 

 










Légende :    VFR   VFR Marginal   IFR   IFR Intensif   IFR Très Intensif
Visi : 
Plafond : 
>= 8 km
>= 3000ft
5 à 8 km
1000 à 3000 ft
1500m à 5 km
500 à 1000 ft
800 à 1500m
200 à 500 ft
< 800m
< 200 ft
Symboles :   Orages  Brouillard  Fortes neiges  Fortes précipitations  Vent > 20 kt
SIGMETs :   Divers  Orages  Givrage  Turbulence  Onde Orograph.  Cendres Volcan.






- Altitude de l'aérodrome : 285 ft
- Code IATA : GOZ


LBGO - Gorna Oryahovitsa

DERNIER METAR :
  • 271100Z AUTO 29010KT 9999 -SHRA FEW012 SCT015 OVC036 07/07 Q1003 NOSIG

METARs EXPIRÉS :
  • 271030Z AUTO 30015KT 9999 -SHRA BKN047 OVC054 08/06 Q1002 TEMPO 5000 RA
  • 271000Z AUTO 30021KT 9999 -SHRA BKN037 BKN049 OVC057 10/06 Q1002 TEMPO 5000 RA
  • 270930Z AUTO 29029KT 9999 -SHRA FEW026 SCT068 10/05 Q1001 TEMPO 5000 RA
  • 270900Z AUTO 23013G25KT 210V280 9999 NCD 18/01 Q0999 NOSIG
  • 270830Z AUTO 23009KT 170V270 9999 NCD 19/02 Q0999 NOSIG

TAF TAF LBGO
Valide du 27 à 06h jusqu'au 28 à 06h UTC


270500Z 2706/2806 20014G24KT 9999 SCT050 SCT070
BECMG 2707/2709 29018G28KT
TEMPO 2709/2711 4000 TSRA SCT015 SCT030CB BKN040
TEMPO 2711/2715 RA SCT015 BKN030
BECMG 2800/2802 VRB04KT



MET'MAP, la Météo Aéronautique d'un coup d'oeil ! - Copyright ORBIFLY Décembre 2007 - Disclaimer

ORBIFLY MET'MAP TEAM :

Programmation & Développement : Alexandra Zaïnal
Sur une idée originale de : Baudouin d'Aumeries
Assistance à la programmation : Marc-Olivier Méhu
Soutien technique & logistique : Manuel Goepfert

Contact : metmap@orbifly.com




SOURCES & CREDITS :

   NOAA